createdAt,value
2019-04-26T00:02:06.179Z,59.78
2019-04-26T00:08:12.097Z,60.71
2019-04-26T00:14:20.842Z,61.20
2019-04-26T00:20:25.629Z,61.57
2019-04-26T00:26:30.315Z,62.37
2019-04-26T00:32:34.955Z,62.81
2019-04-26T00:38:39.589Z,63.14
2019-04-26T00:44:45.076Z,63.97
2019-04-26T00:51:23.455Z,64.62
2019-04-26T00:57:30.523Z,64.70
2019-04-26T01:03:35.376Z,64.91
2019-04-26T01:09:39.991Z,65.43
2019-04-26T01:15:44.552Z,67.08
2019-04-26T01:21:53.425Z,67.58
2019-04-26T01:27:58.382Z,67.61
2019-04-26T01:34:02.994Z,68.41
2019-04-26T01:40:10.612Z,70.31
2019-04-26T01:46:19.361Z,70.70
2019-04-26T01:52:25.603Z,71.24
2019-04-26T01:58:31.342Z,71.65
2019-04-26T02:04:40.767Z,71.98
2019-04-26T02:10:45.471Z,70.87
2019-04-26T02:16:50.264Z,71.08
2019-04-26T02:22:59.312Z,71.36
2019-04-26T02:29:11.669Z,71.87
2019-04-26T02:35:16.296Z,74.70
2019-04-26T02:41:20.907Z,74.62
2019-04-26T02:47:55.180Z,73.80
2019-04-26T02:54:10.514Z,74.82
2019-04-26T03:00:19.054Z,75.52
2019-04-26T03:06:24.335Z,75.78
2019-04-26T03:12:34.421Z,75.09
2019-04-26T03:18:51.905Z,74.17
2019-04-26T03:25:10.099Z,74.80
2019-04-26T03:31:22.434Z,74.83
2019-04-26T03:38:09.102Z,75.65
2019-04-26T03:44:26.976Z,75.62
2019-04-26T03:50:42.882Z,77.49
2019-04-26T03:57:15.036Z,77.82
2019-04-26T04:03:41.626Z,77.04
2019-04-26T04:09:49.315Z,78.97
2019-04-26T04:15:54.574Z,79.68
2019-04-26T04:22:21.157Z,79.63
2019-04-26T04:29:20.253Z,79.98
2019-04-26T04:35:27.854Z,80.06
2019-04-26T04:42:04.339Z,79.64
2019-04-26T04:48:26.072Z,79.35
2019-04-26T04:55:06.412Z,78.01
2019-04-26T05:01:11.820Z,78.28
2019-04-26T05:07:35.925Z,78.26
2019-04-26T05:13:50.352Z,78.66
2019-04-26T05:20:11.817Z,78.30
2019-04-26T05:26:40.740Z,77.76
2019-04-26T05:33:07.758Z,77.18
2019-04-26T05:39:28.963Z,76.09
2019-04-26T05:46:26.665Z,76.80
2019-04-26T05:53:15.389Z,75.86
2019-04-26T05:59:42.584Z,75.62
2019-04-26T06:06:13.968Z,73.74
2019-04-26T06:12:47.125Z,72.58
2019-04-26T06:19:21.278Z,72.96
2019-04-26T06:25:49.518Z,72.32
2019-04-26T06:32:07.734Z,71.08
2019-04-26T06:38:43.482Z,70.34
2019-04-26T06:45:30.960Z,68.72
2019-04-26T06:51:51.823Z,67.08
2019-04-26T06:58:20.581Z,68.14
2019-04-26T07:04:47.746Z,67.46
2019-04-26T07:11:07.510Z,66.94
2019-04-26T07:17:41.011Z,66.43
2019-04-26T07:24:15.308Z,66.83
2019-04-26T07:30:42.137Z,67.04
2019-04-26T07:37:22.714Z,67.11
2019-04-26T07:43:56.322Z,65.71
2019-04-26T07:50:25.246Z,64.55
2019-04-26T07:56:55.622Z,63.91
2019-04-26T08:03:26.300Z,64.90
2019-04-26T08:09:33.977Z,63.83
2019-04-26T08:15:52.123Z,60.49
2019-04-26T08:22:11.606Z,61.27
2019-04-26T08:28:09.972Z,63.48
2019-04-26T08:34:21.131Z,61.98
2019-04-26T08:40:30.997Z,64.90
2019-04-26T08:46:38.883Z,66.44
2019-04-26T08:52:46.275Z,66.65
2019-04-26T08:58:55.713Z,67.10
2019-04-26T09:05:08.951Z,66.88
2019-04-26T09:11:25.543Z,65.79
2019-04-26T09:17:21.804Z,65.97
2019-04-26T09:23:40.230Z,66.07
2019-04-26T09:29:47.451Z,66.70
2019-04-26T09:35:52.158Z,67.41
2019-04-26T09:42:14.602Z,66.98
2019-04-26T09:48:26.666Z,68.03
2019-04-26T09:54:31.291Z,68.07
2019-04-26T10:00:35.990Z,68.33
2019-04-26T10:06:40.714Z,69.71
2019-04-26T10:12:49.980Z,66.92
2019-04-26T10:18:58.259Z,66.05
2019-04-26T10:25:07.755Z,64.91
2019-04-26T10:31:08.978Z,65.32
2019-04-26T10:37:13.555Z,66.32
2019-04-26T10:43:18.258Z,66.58
2019-04-26T10:49:43.697Z,66.63
2019-04-26T10:55:56.052Z,64.84
2019-04-26T11:02:00.670Z,63.67
2019-04-26T11:08:06.076Z,62.92
2019-04-26T11:14:10.719Z,61.94
2019-04-26T11:20:15.473Z,63.10
2019-04-26T11:26:20.023Z,64.67
2019-04-26T11:32:24.649Z,64.01
2019-04-26T11:38:31.226Z,64.34
2019-04-26T11:44:35.462Z,64.07
2019-04-26T11:50:40.011Z,65.14
2019-04-26T11:56:44.570Z,66.34
2019-04-26T12:02:50.802Z,68.47
2019-04-26T12:08:57.197Z,71.05
2019-04-26T12:15:03.967Z,70.94
2019-04-26T12:21:08.153Z,69.21
2019-04-26T12:27:12.771Z,71.48
2019-04-26T12:33:17.487Z,71.29
2019-04-26T12:39:22.654Z,70.75
2019-04-26T12:45:28.860Z,71.36
2019-04-26T12:51:35.131Z,72.64
2019-04-26T12:57:40.877Z,71.05
2019-04-26T13:03:47.663Z,71.67
2019-04-26T13:10:10.249Z,73.32
2019-04-26T13:16:26.368Z,74.15
2019-04-26T13:22:28.433Z,75.52
2019-04-26T13:28:33.023Z,75.93
2019-04-26T13:34:38.367Z,75.90
2019-04-26T13:40:43.074Z,76.95
2019-04-26T13:47:03.739Z,76.66
2019-04-26T13:53:07.845Z,78.62
2019-04-26T13:59:12.640Z,80.06
2019-04-26T14:05:17.190Z,82.56
2019-04-26T14:11:28.091Z,84.64
2019-04-26T14:17:29.735Z,85.86
2019-04-26T14:23:49.468Z,84.80
2019-04-26T14:29:54.488Z,85.74
2019-04-26T14:35:59.104Z,87.03
2019-04-26T14:42:03.850Z,87.42
2019-04-26T14:48:25.206Z,89.00
2019-04-26T14:54:14.714Z,91.00
2019-04-26T15:00:22.276Z,91.24
2019-04-26T15:06:28.658Z,91.98
2019-04-26T15:12:45.710Z,91.70
2019-04-26T15:18:39.594Z,91.25
2019-04-26T15:24:44.151Z,91.22
2019-04-26T15:30:48.709Z,91.72
2019-04-26T15:36:54.262Z,91.22
2019-04-26T15:43:14.254Z,90.71
2019-04-26T15:49:12.596Z,91.53
2019-04-26T15:55:17.302Z,91.77
2019-04-26T16:01:21.841Z,92.54
2019-04-26T16:07:28.865Z,93.63
2019-04-26T16:13:32.748Z,93.61
2019-04-26T16:19:37.307Z,93.61
2019-04-26T16:25:42.831Z,92.19
2019-04-26T16:31:49.143Z,91.67
2019-04-26T16:37:53.922Z,92.05
2019-04-26T16:43:58.479Z,92.91
2019-04-26T16:50:03.717Z,93.37
2019-04-26T16:56:08.476Z,93.37
2019-04-26T17:02:20.940Z,93.47
2019-04-26T17:08:19.477Z,93.90
2019-04-26T17:14:24.599Z,94.32
2019-04-26T17:20:29.337Z,91.56
2019-04-26T17:26:36.511Z,91.07
2019-04-26T17:32:42.188Z,91.03
2019-04-26T17:38:47.791Z,91.85
2019-04-26T17:44:52.352Z,92.16
2019-04-26T17:50:56.969Z,93.71
2019-04-26T17:57:04.395Z,93.42
2019-04-26T18:03:13.229Z,92.88
2019-04-26T18:09:38.050Z,92.53
2019-04-26T18:15:21.013Z,92.30
2019-04-26T18:21:39.367Z,92.26
2019-04-26T18:27:43.919Z,92.92
2019-04-26T18:33:48.549Z,93.05
2019-04-26T18:39:53.500Z,92.40
2019-04-26T18:46:03.388Z,93.15
2019-04-26T18:52:08.789Z,93.32
2019-04-26T18:58:13.522Z,93.25
2019-04-26T19:04:18.389Z,93.42
2019-04-26T19:10:25.694Z,93.24
2019-04-26T19:16:35.768Z,93.06
2019-04-26T19:22:41.969Z,93.32
2019-04-26T19:28:46.525Z,93.57
2019-04-26T19:34:52.462Z,93.98
2019-04-26T19:40:57.117Z,94.16
2019-04-26T19:47:15.424Z,94.51
2019-04-26T19:53:24.943Z,92.85
2019-04-26T19:59:33.253Z,94.44
2019-04-26T20:05:36.361Z,94.00
2019-04-26T20:11:42.354Z,94.43
2019-04-26T20:17:52.391Z,94.58
2019-04-26T20:23:54.528Z,94.31
2019-04-26T20:29:59.397Z,94.62
2019-04-26T20:36:04.897Z,94.65
2019-04-26T20:42:09.594Z,94.67
2019-04-26T20:48:14.210Z,94.47
2019-04-26T20:54:18.779Z,93.95
2019-04-26T21:00:24.347Z,93.75
2019-04-26T21:06:33.008Z,94.03
2019-04-26T21:12:35.274Z,94.49
2019-04-26T21:18:41.913Z,94.17
2019-04-26T21:24:50.731Z,94.22
2019-04-26T21:31:09.165Z,93.88
2019-04-26T21:37:20.510Z,94.62
2019-04-26T21:43:23.171Z,94.31
2019-04-26T21:49:28.670Z,94.15
2019-04-26T21:55:38.364Z,94.45
2019-04-26T22:01:39.511Z,94.73
2019-04-26T22:07:47.658Z,94.56
2019-04-26T22:14:07.040Z,94.80
2019-04-26T22:20:15.621Z,95.05
2019-04-26T22:26:17.970Z,95.34
2019-04-26T22:32:22.966Z,95.14
2019-04-26T22:38:27.708Z,95.68
2019-04-26T22:44:43.679Z,95.90
2019-04-26T22:50:53.694Z,95.82
2019-04-26T22:56:54.743Z,95.14
2019-04-26T23:03:03.678Z,95.23
2019-04-26T23:09:11.491Z,95.31
2019-04-26T23:15:16.683Z,94.43
2019-04-26T23:21:24.896Z,95.34
2019-04-26T23:27:29.567Z,93.94
2019-04-26T23:33:34.117Z,94.42
2019-04-26T23:39:38.722Z,94.96
2019-04-26T23:45:48.290Z,95.21
2019-04-26T23:51:53.219Z,95.79
2019-04-26T23:57:57.641Z,95.40
